Wednesday, June 20, 2018, 7:33 AM GMT
Back to Local

CWTN, Cap Tourmente

Location: , , Canada Lat: 47.067
Local Time: 7:33 AM GMT ( 7:33 GMT) Lon: -70.8
Time Zone: GMT Elev: 19 ft

Show me the last for .
Show Coded

Time T Td Feel RH Dir Speed Gust Alt SLP Vis Weather Sky Remarks
2018-06-20 07:00 57 47 - 69 320° 3 - - 29.77 0 None
2018-06-20 06:00 58 47 - 66 320° 2 - - 29.77 0 None
2018-06-20 05:00 58 46 - 63 340° 3 - - 29.79 0 None
2018-06-20 03:00 53 49 - 85 310° 2 - - 29.79 0 None
2018-06-20 02:00 56 50 - 77 340° 1 - - 29.79 0 None
2018-06-20 01:00 57 49 - 76 340° 3 - - 29.78 0 None
2018-06-20 00:00 61 51 - 71 330° 3 - - 29.77 0 None
2018-06-19 23:00 73 38 - 27 310° 5 - - 29.76 0 None
2018-06-19 22:00 76 40 - 27 300° 3 - - 29.75 0 None
2018-06-19 21:00 76 41 - 28 240° 5 - - 29.73 0 None
2018-06-19 20:00 75 40 - 27 20° 5 - - 29.73 0 None
2018-06-19 19:00 75 38 - 26 330° 5 - - 29.73 0 Peak wind: 21 mph (19 kts) from 290° at 10 min
2018-06-19 18:00 74 35 - 24 320° 6 - - 29.73 0 None
2018-06-19 17:00 72 38 - 29 270° 7 - - 29.73 0 Peak wind: 23 mph (20 kts) from 280° at 12 min
2018-06-19 16:00 71 41 - 33 270° 7 - - 29.73 0 Peak wind: 21 mph (19 kts) from 260° at 37 min
2018-06-19 15:00 67 42 - 39 270° 7 18 - 29.74 0 Peak wind: 20 mph (18 kts) from 250° at 48 min
2018-06-19 14:00 67 43 - 41 260° 6 - - 29.73 0 Peak wind: 19 mph (17 kts) from 250° at 42 min
2018-06-19 13:00 63 46 - 53 240° 6 - - 29.74 0 None
2018-06-19 12:00 61 47 - 61 240° 5 - - 29.74 0 None
2018-06-19 11:00 59 46 - 62 270° 5 - - 29.72 0 None
2018-06-19 10:00 56 51 - 83 300° 2 - - 29.70 0 None
2018-06-19 09:00 55 49 - 81 60° 2 - - 29.67 0 None
2018-06-19 08:00 59 49 - 69 270° 6 - - 29.63 0 None

Support USWX by starting your Amazon purchase here.